Buffalo, New York
Current Conditions -  °F | °C
As of 5:54 PM on Wednesday 17 Dec 2014 (Local Time) from KBUF Reporting Station
Light Snow Light Snow  
Wind Chill: -6°   Ceiling: 1900
Heat Index:   Visibility: 9mi
Dew Point: -3°   Wind: 21mph
Humidity: 78%   Direction: 250°WSW
Pressure: 29.95"   Gusts: 35mph
Location:  42.89°N, 78.88°W
Report Text: KBUF 172254Z 25018G30KT 9SM -SN FEW010 BKN019 OVC027 01/M03 A2995 RMK AO2 PK WND 25030/2252 SLP148 P0000 T00061028
Loading
Personal Weather Stations






























Interactive Weather Map New forecast layout! Learn more

10-Day Weather Forecast

Advertisements
Track Severe Weather on mobile